Terminal Aerodrome Forecast
Issued by NWS

Home | Current Version | Previous Version | Text Only | Print | Product List | Glossary On
Versions: 1 2 3 4 5 6 7 8 9 10 11 12 13 14 15 16 17 18 19 20 21
000
FTUS44 KOUN 282326
TAFPNC
TAF
KPNC 282326Z 2900/2924 12006KT P6SM SCT250
     FM291400 07010KT P6SM SCT035 SCT250
     FM292200 02011KT P6SM BKN035=

USA.gov is the U.S. government's official web portal to all federal, state and local government web resources and services.